Terminal Aerodrome Forecast
Issued by NWS Wilmington, OH

Current Version | Previous Version | Text Only | Print | Product List | Glossary On
Versions: 1 2 3 4 5 6 7 8 9 10 11 12 13 14 15 16 17 18 19 20 21
000 FTUS41 KILN 291452 AAB TAFILN TAF AMD KILN 291452Z 2915/3012 08010KT P6SM BKN012 FM291800 05009KT P6SM BKN022 FM292000 08010KT P6SM SCT030 FM292300 09009KT P6SM BKN200=

USA.gov is the U.S. government's official web portal to all federal, state and local government web resources and services.